Hastings, Michigan
Current Conditions -  °F | °C
As of 12:53 AM on Thursday 29 Jan 2015 (Local Time) from KGRR Reporting Station
Clear Clear  
Wind Chill: 17°   Ceiling: Unl
Heat Index: 27°   Visibility: 10mi
Dew Point: 16°   Wind: 12mph
Humidity: 63%   Direction: 140°SE
Pressure: 29.94"   Gusts: NA
Location:  42.65°N, 85.29°W
Report Text: KGRR 290553Z AUTO 14010KT 10SM CLR M03/M09 A2994 RMK AO2 SLP147 T10281089 11022 21028 58028
Loading
Personal Weather Stations






























Interactive Weather Map New forecast layout! Learn more

10-Day Weather Forecast

Advertisements
Track Severe Weather on mobile